sensor_id;sensor_type;location;lat;lon;timestamp;P1;durP1;ratioP1;P2;durP2;ratioP2
73150;SDS011;61354;50.758;6.106;2022-08-30T00:02:11;6.28;;;2.55;;
73150;SDS011;61354;50.758;6.106;2022-08-30T00:04:36;6.40;;;2.45;;
73150;SDS011;61354;50.758;6.106;2022-08-30T00:07:01;6.22;;;2.63;;
73150;SDS011;61354;50.758;6.106;2022-08-30T00:09:27;7.13;;;2.75;;
73150;SDS011;61354;50.758;6.106;2022-08-30T00:11:53;7.20;;;2.80;;
73150;SDS011;61354;50.758;6.106;2022-08-30T00:14:18;6.47;;;2.53;;
73150;SDS011;61354;50.758;6.106;2022-08-30T00:16:44;6.97;;;3.08;;
73150;SDS011;61354;50.758;6.106;2022-08-30T00:19:10;7.13;;;2.50;;
73150;SDS011;61354;50.758;6.106;2022-08-30T00:21:35;7.25;;;2.80;;
73150;SDS011;61354;50.758;6.106;2022-08-30T00:24:01;6.28;;;2.25;;
73150;SDS011;61354;50.758;6.106;2022-08-30T00:26:26;5.85;;;2.17;;
73150;SDS011;61354;50.758;6.106;2022-08-30T00:28:52;4.85;;;2.40;;
73150;SDS011;61354;50.758;6.106;2022-08-30T00:31:17;4.97;;;2.22;;
73150;SDS011;61354;50.758;6.106;2022-08-30T00:33:43;5.20;;;1.98;;
73150;SDS011;61354;50.758;6.106;2022-08-30T00:36:08;5.88;;;2.60;;
73150;SDS011;61354;50.758;6.106;2022-08-30T00:38:33;5.20;;;2.47;;
73150;SDS011;61354;50.758;6.106;2022-08-30T00:40:59;7.78;;;2.33;;
73150;SDS011;61354;50.758;6.106;2022-08-30T00:43:26;4.82;;;2.53;;
73150;SDS011;61354;50.758;6.106;2022-08-30T00:45:54;5.97;;;2.45;;
73150;SDS011;61354;50.758;6.106;2022-08-30T00:48:20;5.72;;;2.53;;
73150;SDS011;61354;50.758;6.106;2022-08-30T00:50:48;5.88;;;2.38;;
73150;SDS011;61354;50.758;6.106;2022-08-30T00:53:19;6.20;;;2.67;;
73150;SDS011;61354;50.758;6.106;2022-08-30T00:55:48;7.15;;;3.17;;
73150;SDS011;61354;50.758;6.106;2022-08-30T00:58:16;5.95;;;2.45;;
73150;SDS011;61354;50.758;6.106;2022-08-30T01:00:49;4.72;;;2.28;;
73150;SDS011;61354;50.758;6.106;2022-08-30T01:03:18;6.25;;;2.30;;
73150;SDS011;61354;50.758;6.106;2022-08-30T01:05:43;7.65;;;2.88;;
73150;SDS011;61354;50.758;6.106;2022-08-30T01:08:10;5.50;;;2.33;;
73150;SDS011;61354;50.758;6.106;2022-08-30T01:10:36;6.00;;;2.40;;
73150;SDS011;61354;50.758;6.106;2022-08-30T01:13:03;6.00;;;2.22;;
73150;SDS011;61354;50.758;6.106;2022-08-30T01:15:29;8.50;;;2.80;;
73150;SDS011;61354;50.758;6.106;2022-08-30T01:17:56;6.25;;;2.20;;
73150;SDS011;61354;50.758;6.106;2022-08-30T01:20:25;6.30;;;2.50;;
73150;SDS011;61354;50.758;6.106;2022-08-30T01:25:28;7.10;;;2.63;;
73150;SDS011;61354;50.758;6.106;2022-08-30T01:27:59;6.00;;;2.40;;
73150;SDS011;61354;50.758;6.106;2022-08-30T01:30:28;6.60;;;2.63;;
73150;SDS011;61354;50.758;6.106;2022-08-30T01:32:58;8.07;;;2.70;;
73150;SDS011;61354;50.758;6.106;2022-08-30T01:35:32;6.20;;;2.38;;
73150;SDS011;61354;50.758;6.106;2022-08-30T01:38:03;5.93;;;2.33;;
73150;SDS011;61354;50.758;6.106;2022-08-30T01:40:29;5.32;;;2.47;;
73150;SDS011;61354;50.758;6.106;2022-08-30T01:42:54;7.28;;;2.72;;
73150;SDS011;61354;50.758;6.106;2022-08-30T01:45:20;6.57;;;2.70;;
73150;SDS011;61354;50.758;6.106;2022-08-30T01:47:45;8.18;;;2.65;;
73150;SDS011;61354;50.758;6.106;2022-08-30T01:50:11;6.20;;;2.40;;
73150;SDS011;61354;50.758;6.106;2022-08-30T01:52:37;8.15;;;2.72;;
73150;SDS011;61354;50.758;6.106;2022-08-30T01:55:04;7.05;;;2.58;;
73150;SDS011;61354;50.758;6.106;2022-08-30T01:57:30;7.25;;;3.10;;
73150;SDS011;61354;50.758;6.106;2022-08-30T01:59:56;5.30;;;2.45;;
73150;SDS011;61354;50.758;6.106;2022-08-30T02:02:22;5.82;;;2.58;;
73150;SDS011;61354;50.758;6.106;2022-08-30T02:04:51;6.63;;;2.53;;
73150;SDS011;61354;50.758;6.106;2022-08-30T02:07:18;6.72;;;2.53;;
73150;SDS011;61354;50.758;6.106;2022-08-30T02:09:44;4.95;;;2.50;;
73150;SDS011;61354;50.758;6.106;2022-08-30T02:12:10;6.32;;;2.90;;
73150;SDS011;61354;50.758;6.106;2022-08-30T02:14:35;6.60;;;3.05;;
73150;SDS011;61354;50.758;6.106;2022-08-30T02:17:05;5.07;;;2.58;;
73150;SDS011;61354;50.758;6.106;2022-08-30T02:19:33;5.43;;;2.22;;
73150;SDS011;61354;50.758;6.106;2022-08-30T02:21:58;5.88;;;2.20;;
73150;SDS011;61354;50.758;6.106;2022-08-30T02:24:24;4.70;;;2.22;;
73150;SDS011;61354;50.758;6.106;2022-08-30T02:26:50;6.60;;;2.70;;
73150;SDS011;61354;50.758;6.106;2022-08-30T02:29:17;6.65;;;2.72;;
73150;SDS011;61354;50.758;6.106;2022-08-30T02:31:44;5.55;;;2.50;;
73150;SDS011;61354;50.758;6.106;2022-08-30T02:34:09;5.60;;;2.60;;
73150;SDS011;61354;50.758;6.106;2022-08-30T02:36:35;5.82;;;2.30;;
73150;SDS011;61354;50.758;6.106;2022-08-30T02:39:01;8.25;;;2.60;;
73150;SDS011;61354;50.758;6.106;2022-08-30T02:41:27;7.47;;;2.58;;
73150;SDS011;61354;50.758;6.106;2022-08-30T02:43:52;6.70;;;2.60;;
73150;SDS011;61354;50.758;6.106;2022-08-30T02:46:22;6.55;;;2.47;;
73150;SDS011;61354;50.758;6.106;2022-08-30T02:48:48;6.32;;;2.40;;
73150;SDS011;61354;50.758;6.106;2022-08-30T02:51:13;5.72;;;2.58;;
73150;SDS011;61354;50.758;6.106;2022-08-30T02:53:39;8.45;;;2.50;;
73150;SDS011;61354;50.758;6.106;2022-08-30T02:56:08;4.85;;;2.50;;
73150;SDS011;61354;50.758;6.106;2022-08-30T02:58:35;4.85;;;2.10;;
73150;SDS011;61354;50.758;6.106;2022-08-30T03:01:01;4.80;;;2.13;;
73150;SDS011;61354;50.758;6.106;2022-08-30T03:03:27;7.25;;;2.65;;
73150;SDS011;61354;50.758;6.106;2022-08-30T03:05:52;4.78;;;2.53;;
73150;SDS011;61354;50.758;6.106;2022-08-30T03:08:18;6.18;;;2.67;;
73150;SDS011;61354;50.758;6.106;2022-08-30T03:10:43;5.25;;;2.80;;
73150;SDS011;61354;50.758;6.106;2022-08-30T03:13:10;5.03;;;2.60;;
73150;SDS011;61354;50.758;6.106;2022-08-30T03:15:36;6.07;;;2.35;;
73150;SDS011;61354;50.758;6.106;2022-08-30T03:18:03;6.53;;;2.40;;
73150;SDS011;61354;50.758;6.106;2022-08-30T03:20:29;6.88;;;2.58;;
73150;SDS011;61354;50.758;6.106;2022-08-30T03:22:54;6.25;;;2.50;;
73150;SDS011;61354;50.758;6.106;2022-08-30T03:25:20;4.57;;;2.20;;
73150;SDS011;61354;50.758;6.106;2022-08-30T03:27:46;6.05;;;2.30;;
73150;SDS011;61354;50.758;6.106;2022-08-30T03:30:12;5.03;;;2.30;;
73150;SDS011;61354;50.758;6.106;2022-08-30T03:32:38;6.88;;;2.35;;
73150;SDS011;61354;50.758;6.106;2022-08-30T03:35:05;4.75;;;2.58;;
73150;SDS011;61354;50.758;6.106;2022-08-30T03:37:32;6.93;;;2.60;;
73150;SDS011;61354;50.758;6.106;2022-08-30T03:39:57;4.72;;;2.67;;
73150;SDS011;61354;50.758;6.106;2022-08-30T03:42:23;7.35;;;2.38;;
73150;SDS011;61354;50.758;6.106;2022-08-30T03:44:48;6.45;;;2.60;;
73150;SDS011;61354;50.758;6.106;2022-08-30T03:47:14;4.85;;;2.40;;
73150;SDS011;61354;50.758;6.106;2022-08-30T03:49:39;6.00;;;2.78;;
73150;SDS011;61354;50.758;6.106;2022-08-30T03:52:05;6.45;;;2.42;;
73150;SDS011;61354;50.758;6.106;2022-08-30T03:54:30;6.28;;;2.67;;
73150;SDS011;61354;50.758;6.106;2022-08-30T03:56:56;6.68;;;2.33;;
73150;SDS011;61354;50.758;6.106;2022-08-30T03:59:22;6.78;;;2.50;;
73150;SDS011;61354;50.758;6.106;2022-08-30T04:01:48;7.72;;;2.50;;
73150;SDS011;61354;50.758;6.106;2022-08-30T04:04:14;5.68;;;2.35;;
73150;SDS011;61354;50.758;6.106;2022-08-30T04:06:39;9.10;;;2.47;;
73150;SDS011;61354;50.758;6.106;2022-08-30T04:09:05;6.75;;;2.83;;
73150;SDS011;61354;50.758;6.106;2022-08-30T04:11:31;5.07;;;2.55;;
73150;SDS011;61354;50.758;6.106;2022-08-30T04:13:57;5.90;;;2.50;;
73150;SDS011;61354;50.758;6.106;2022-08-30T04:16:23;6.30;;;2.60;;
73150;SDS011;61354;50.758;6.106;2022-08-30T04:18:49;5.82;;;2.75;;
73150;SDS011;61354;50.758;6.106;2022-08-30T04:21:14;6.25;;;2.70;;
73150;SDS011;61354;50.758;6.106;2022-08-30T04:23:40;7.32;;;2.50;;
73150;SDS011;61354;50.758;6.106;2022-08-30T04:26:07;4.97;;;2.47;;
73150;SDS011;61354;50.758;6.106;2022-08-30T04:28:32;5.90;;;2.40;;
73150;SDS011;61354;50.758;6.106;2022-08-30T04:30:59;5.55;;;2.40;;
73150;SDS011;61354;50.758;6.106;2022-08-30T04:33:25;7.78;;;2.92;;
73150;SDS011;61354;50.758;6.106;2022-08-30T04:35:51;7.07;;;2.85;;
73150;SDS011;61354;50.758;6.106;2022-08-30T04:38:17;7.65;;;2.50;;
73150;SDS011;61354;50.758;6.106;2022-08-30T04:40:46;7.03;;;2.60;;
73150;SDS011;61354;50.758;6.106;2022-08-30T04:43:14;6.40;;;2.90;;
73150;SDS011;61354;50.758;6.106;2022-08-30T04:45:40;6.03;;;2.40;;
73150;SDS011;61354;50.758;6.106;2022-08-30T04:48:06;6.05;;;2.50;;
73150;SDS011;61354;50.758;6.106;2022-08-30T04:50:32;6.00;;;2.42;;
73150;SDS011;61354;50.758;6.106;2022-08-30T04:52:57;6.70;;;2.83;;
73150;SDS011;61354;50.758;6.106;2022-08-30T04:55:23;7.47;;;2.75;;
73150;SDS011;61354;50.758;6.106;2022-08-30T04:57:50;5.88;;;2.90;;
73150;SDS011;61354;50.758;6.106;2022-08-30T05:00:16;7.25;;;3.05;;
73150;SDS011;61354;50.758;6.106;2022-08-30T05:02:44;7.90;;;2.67;;
73150;SDS011;61354;50.758;6.106;2022-08-30T05:05:11;7.13;;;2.70;;
73150;SDS011;61354;50.758;6.106;2022-08-30T05:07:55;7.35;;;2.90;;
73150;SDS011;61354;50.758;6.106;2022-08-30T05:10:21;5.65;;;2.60;;
73150;SDS011;61354;50.758;6.106;2022-08-30T05:12:47;7.55;;;2.88;;
73150;SDS011;61354;50.758;6.106;2022-08-30T05:15:12;5.90;;;2.75;;
73150;SDS011;61354;50.758;6.106;2022-08-30T05:17:38;6.25;;;3.00;;
73150;SDS011;61354;50.758;6.106;2022-08-30T05:20:05;7.05;;;2.95;;
73150;SDS011;61354;50.758;6.106;2022-08-30T05:25:00;8.68;;;2.85;;
73150;SDS011;61354;50.758;6.106;2022-08-30T05:27:25;7.35;;;3.00;;
73150;SDS011;61354;50.758;6.106;2022-08-30T05:29:51;6.70;;;3.20;;
73150;SDS011;61354;50.758;6.106;2022-08-30T05:38:49;7.07;;;3.20;;
73150;SDS011;61354;50.758;6.106;2022-08-30T05:44:09;6.22;;;2.92;;
73150;SDS011;61354;50.758;6.106;2022-08-30T05:46:44;8.02;;;2.97;;
73150;SDS011;61354;50.758;6.106;2022-08-30T05:52:11;6.88;;;2.90;;
73150;SDS011;61354;50.758;6.106;2022-08-30T05:54:39;7.47;;;2.90;;
73150;SDS011;61354;50.758;6.106;2022-08-30T05:57:06;6.00;;;3.60;;
73150;SDS011;61354;50.758;6.106;2022-08-30T05:59:32;8.77;;;2.88;;
73150;SDS011;61354;50.758;6.106;2022-08-30T06:01:58;6.43;;;2.70;;
73150;SDS011;61354;50.758;6.106;2022-08-30T06:04:23;5.85;;;3.10;;
73150;SDS011;61354;50.758;6.106;2022-08-30T06:06:49;7.30;;;3.10;;
73150;SDS011;61354;50.758;6.106;2022-08-30T06:09:15;6.53;;;2.80;;
73150;SDS011;61354;50.758;6.106;2022-08-30T06:11:42;6.07;;;3.30;;
73150;SDS011;61354;50.758;6.106;2022-08-30T06:14:08;7.50;;;3.88;;
73150;SDS011;61354;50.758;6.106;2022-08-30T06:16:34;6.22;;;2.92;;
73150;SDS011;61354;50.758;6.106;2022-08-30T06:19:03;8.23;;;3.33;;
73150;SDS011;61354;50.758;6.106;2022-08-30T06:21:31;6.30;;;3.47;;
73150;SDS011;61354;50.758;6.106;2022-08-30T06:24:01;10.07;;;3.30;;
73150;SDS011;61354;50.758;6.106;2022-08-30T06:26:28;6.22;;;3.28;;
73150;SDS011;61354;50.758;6.106;2022-08-30T06:28:55;7.75;;;2.95;;
73150;SDS011;61354;50.758;6.106;2022-08-30T06:31:22;6.53;;;3.13;;
73150;SDS011;61354;50.758;6.106;2022-08-30T06:33:49;7.47;;;3.28;;
73150;SDS011;61354;50.758;6.106;2022-08-30T06:36:16;9.18;;;3.25;;
73150;SDS011;61354;50.758;6.106;2022-08-30T06:38:45;7.82;;;3.53;;
73150;SDS011;61354;50.758;6.106;2022-08-30T06:41:16;6.53;;;3.13;;
73150;SDS011;61354;50.758;6.106;2022-08-30T06:43:43;5.82;;;3.00;;
73150;SDS011;61354;50.758;6.106;2022-08-30T06:46:11;7.63;;;3.50;;
73150;SDS011;61354;50.758;6.106;2022-08-30T06:48:38;6.63;;;3.15;;
73150;SDS011;61354;50.758;6.106;2022-08-30T06:51:05;5.63;;;2.55;;
73150;SDS011;61354;50.758;6.106;2022-08-30T06:53:31;7.32;;;2.85;;
73150;SDS011;61354;50.758;6.106;2022-08-30T06:55:58;7.00;;;3.17;;
73150;SDS011;61354;50.758;6.106;2022-08-30T07:00:50;8.40;;;2.55;;
73150;SDS011;61354;50.758;6.106;2022-08-30T07:03:16;5.20;;;2.28;;
73150;SDS011;61354;50.758;6.106;2022-08-30T07:05:41;7.28;;;2.70;;
73150;SDS011;61354;50.758;6.106;2022-08-30T07:08:07;4.90;;;2.40;;
73150;SDS011;61354;50.758;6.106;2022-08-30T07:10:32;5.10;;;2.20;;
73150;SDS011;61354;50.758;6.106;2022-08-30T07:12:58;5.80;;;2.25;;
73150;SDS011;61354;50.758;6.106;2022-08-30T07:15:23;6.90;;;2.30;;
73150;SDS011;61354;50.758;6.106;2022-08-30T07:17:49;5.93;;;2.20;;
73150;SDS011;61354;50.758;6.106;2022-08-30T07:20:35;6.03;;;2.45;;
73150;SDS011;61354;50.758;6.106;2022-08-30T07:23:02;4.10;;;2.35;;
73150;SDS011;61354;50.758;6.106;2022-08-30T07:25:43;6.07;;;2.20;;
73150;SDS011;61354;50.758;6.106;2022-08-30T07:28:09;4.50;;;2.38;;
73150;SDS011;61354;50.758;6.106;2022-08-30T07:30:43;4.95;;;2.28;;
73150;SDS011;61354;50.758;6.106;2022-08-30T07:48:10;3.50;;;2.00;;
73150;SDS011;61354;50.758;6.106;2022-08-30T07:54:08;4.85;;;2.42;;
73150;SDS011;61354;50.758;6.106;2022-08-30T07:56:34;4.07;;;1.98;;
73150;SDS011;61354;50.758;6.106;2022-08-30T07:59:00;5.03;;;2.03;;
73150;SDS011;61354;50.758;6.106;2022-08-30T08:01:25;4.93;;;2.00;;
73150;SDS011;61354;50.758;6.106;2022-08-30T08:03:50;5.28;;;2.05;;
73150;SDS011;61354;50.758;6.106;2022-08-30T08:18:08;4.45;;;1.85;;
73150;SDS011;61354;50.758;6.106;2022-08-30T08:21:11;3.88;;;1.85;;
73150;SDS011;61354;50.758;6.106;2022-08-30T08:23:45;3.83;;;1.90;;
73150;SDS011;61354;50.758;6.106;2022-08-30T08:26:11;4.88;;;1.90;;
73150;SDS011;61354;50.758;6.106;2022-08-30T08:28:37;4.30;;;1.88;;
73150;SDS011;61354;50.758;6.106;2022-08-30T08:31:12;4.60;;;2.22;;
73150;SDS011;61354;50.758;6.106;2022-08-30T08:33:42;6.25;;;2.17;;
73150;SDS011;61354;50.758;6.106;2022-08-30T08:36:07;7.03;;;2.60;;
73150;SDS011;61354;50.758;6.106;2022-08-30T08:38:33;4.85;;;2.40;;
73150;SDS011;61354;50.758;6.106;2022-08-30T08:41:35;4.72;;;2.22;;
73150;SDS011;61354;50.758;6.106;2022-08-30T08:43:50;5.55;;;2.22;;
73150;SDS011;61354;50.758;6.106;2022-08-30T08:48:57;6.90;;;2.35;;
73150;SDS011;61354;50.758;6.106;2022-08-30T08:51:30;5.50;;;2.65;;
73150;SDS011;61354;50.758;6.106;2022-08-30T08:54:24;6.53;;;2.50;;
73150;SDS011;61354;50.758;6.106;2022-08-30T08:56:56;6.10;;;2.30;;
73150;SDS011;61354;50.758;6.106;2022-08-30T08:59:23;6.05;;;2.28;;
73150;SDS011;61354;50.758;6.106;2022-08-30T09:01:48;6.13;;;2.60;;
73150;SDS011;61354;50.758;6.106;2022-08-30T09:04:16;3.80;;;2.20;;
73150;SDS011;61354;50.758;6.106;2022-08-30T09:06:56;4.45;;;2.25;;
73150;SDS011;61354;50.758;6.106;2022-08-30T09:09:36;5.55;;;2.60;;
73150;SDS011;61354;50.758;6.106;2022-08-30T09:12:05;6.18;;;2.33;;
73150;SDS011;61354;50.758;6.106;2022-08-30T09:14:36;5.18;;;2.40;;
73150;SDS011;61354;50.758;6.106;2022-08-30T09:25:00;5.93;;;2.50;;
73150;SDS011;61354;50.758;6.106;2022-08-30T09:27:31;5.88;;;2.22;;
73150;SDS011;61354;50.758;6.106;2022-08-30T09:30:09;7.85;;;2.40;;
73150;SDS011;61354;50.758;6.106;2022-08-30T09:35:24;6.03;;;2.30;;
73150;SDS011;61354;50.758;6.106;2022-08-30T09:40:32;5.78;;;2.45;;
73150;SDS011;61354;50.758;6.106;2022-08-30T09:55:53;5.78;;;2.42;;
73150;SDS011;61354;50.758;6.106;2022-08-30T10:48:15;3.70;;;2.00;;
73150;SDS011;61354;50.758;6.106;2022-08-30T11:18:14;4.28;;;1.85;;
73150;SDS011;61354;50.758;6.106;2022-08-30T11:24:15;4.60;;;2.40;;
73150;SDS011;61354;50.758;6.106;2022-08-30T11:42:54;11.07;;;2.60;;
73150;SDS011;61354;50.758;6.106;2022-08-30T11:53:36;8.10;;;2.60;;
73150;SDS011;61354;50.758;6.106;2022-08-30T11:56:27;5.88;;;2.30;;
73150;SDS011;61354;50.758;6.106;2022-08-30T11:59:18;5.32;;;2.47;;
73150;SDS011;61354;50.758;6.106;2022-08-30T12:01:53;5.50;;;2.45;;
73150;SDS011;61354;50.758;6.106;2022-08-30T12:20:31;4.72;;;2.33;;
73150;SDS011;61354;50.758;6.106;2022-08-30T12:23:14;5.95;;;2.80;;
73150;SDS011;61354;50.758;6.106;2022-08-30T12:56:12;7.82;;;2.70;;
73150;SDS011;61354;50.758;6.106;2022-08-30T12:58:47;8.02;;;3.20;;
73150;SDS011;61354;50.758;6.106;2022-08-30T13:07:10;5.80;;;2.22;;
73150;SDS011;61354;50.758;6.106;2022-08-30T13:09:36;6.10;;;2.92;;
73150;SDS011;61354;50.758;6.106;2022-08-30T13:12:06;5.57;;;2.60;;
73150;SDS011;61354;50.758;6.106;2022-08-30T13:22:23;4.53;;;2.17;;
73150;SDS011;61354;50.758;6.106;2022-08-30T13:24:49;6.35;;;2.80;;
73150;SDS011;61354;50.758;6.106;2022-08-30T13:27:16;6.70;;;2.45;;
73150;SDS011;61354;50.758;6.106;2022-08-30T13:29:45;4.75;;;2.22;;
73150;SDS011;61354;50.758;6.106;2022-08-30T13:32:11;4.55;;;2.25;;
73150;SDS011;61354;50.758;6.106;2022-08-30T13:34:43;5.00;;;2.03;;
73150;SDS011;61354;50.758;6.106;2022-08-30T13:37:11;5.70;;;2.70;;
73150;SDS011;61354;50.758;6.106;2022-08-30T13:39:46;4.95;;;2.50;;
73150;SDS011;61354;50.758;6.106;2022-08-30T13:42:20;6.82;;;2.40;;
73150;SDS011;61354;50.758;6.106;2022-08-30T13:44:46;4.90;;;2.67;;
73150;SDS011;61354;50.758;6.106;2022-08-30T13:53:08;7.65;;;2.80;;
73150;SDS011;61354;50.758;6.106;2022-08-30T13:55:43;4.80;;;2.25;;
73150;SDS011;61354;50.758;6.106;2022-08-30T13:58:09;6.43;;;2.40;;
73150;SDS011;61354;50.758;6.106;2022-08-30T14:00:44;5.55;;;2.30;;
73150;SDS011;61354;50.758;6.106;2022-08-30T14:03:11;7.43;;;2.20;;
73150;SDS011;61354;50.758;6.106;2022-08-30T14:12:48;6.40;;;2.53;;
73150;SDS011;61354;50.758;6.106;2022-08-30T14:33:11;5.05;;;2.40;;
73150;SDS011;61354;50.758;6.106;2022-08-30T14:36:10;4.80;;;2.72;;
73150;SDS011;61354;50.758;6.106;2022-08-30T14:38:36;6.60;;;3.10;;
73150;SDS011;61354;50.758;6.106;2022-08-30T14:41:02;5.90;;;3.00;;
73150;SDS011;61354;50.758;6.106;2022-08-30T14:43:29;6.25;;;2.80;;
73150;SDS011;61354;50.758;6.106;2022-08-30T14:49:10;6.35;;;2.97;;
73150;SDS011;61354;50.758;6.106;2022-08-30T14:52:09;5.95;;;3.05;;
73150;SDS011;61354;50.758;6.106;2022-08-30T14:58:50;5.43;;;3.08;;
73150;SDS011;61354;50.758;6.106;2022-08-30T15:35:45;7.70;;;3.10;;
73150;SDS011;61354;50.758;6.106;2022-08-30T15:41:11;6.65;;;3.20;;
73150;SDS011;61354;50.758;6.106;2022-08-30T15:43:43;5.72;;;2.65;;
73150;SDS011;61354;50.758;6.106;2022-08-30T15:46:16;5.80;;;2.90;;
73150;SDS011;61354;50.758;6.106;2022-08-30T15:48:42;5.88;;;3.13;;
73150;SDS011;61354;50.758;6.106;2022-08-30T15:51:08;5.30;;;2.92;;
73150;SDS011;61354;50.758;6.106;2022-08-30T15:53:34;4.22;;;2.70;;
73150;SDS011;61354;50.758;6.106;2022-08-30T15:55:59;7.53;;;2.67;;
73150;SDS011;61354;50.758;6.106;2022-08-30T15:58:25;4.90;;;2.78;;
73150;SDS011;61354;50.758;6.106;2022-08-30T16:00:51;5.22;;;2.60;;
73150;SDS011;61354;50.758;6.106;2022-08-30T16:03:16;4.47;;;2.72;;
73150;SDS011;61354;50.758;6.106;2022-08-30T16:05:42;6.03;;;2.80;;
73150;SDS011;61354;50.758;6.106;2022-08-30T16:08:07;5.85;;;2.65;;
73150;SDS011;61354;50.758;6.106;2022-08-30T16:10:33;5.13;;;2.92;;
73150;SDS011;61354;50.758;6.106;2022-08-30T16:12:58;6.00;;;2.38;;
73150;SDS011;61354;50.758;6.106;2022-08-30T16:15:25;5.13;;;2.67;;
73150;SDS011;61354;50.758;6.106;2022-08-30T16:17:51;7.38;;;3.20;;
73150;SDS011;61354;50.758;6.106;2022-08-30T16:20:17;5.95;;;2.55;;
73150;SDS011;61354;50.758;6.106;2022-08-30T16:22:43;6.57;;;3.00;;
73150;SDS011;61354;50.758;6.106;2022-08-30T16:25:08;6.70;;;3.10;;
73150;SDS011;61354;50.758;6.106;2022-08-30T16:27:34;4.45;;;2.85;;
73150;SDS011;61354;50.758;6.106;2022-08-30T16:29:59;5.40;;;2.80;;
73150;SDS011;61354;50.758;6.106;2022-08-30T16:32:25;5.55;;;2.95;;
73150;SDS011;61354;50.758;6.106;2022-08-30T16:34:50;5.55;;;2.55;;
73150;SDS011;61354;50.758;6.106;2022-08-30T16:37:16;5.53;;;2.63;;
73150;SDS011;61354;50.758;6.106;2022-08-30T16:39:41;6.10;;;2.75;;
73150;SDS011;61354;50.758;6.106;2022-08-30T16:42:07;5.30;;;2.70;;
73150;SDS011;61354;50.758;6.106;2022-08-30T16:44:32;4.90;;;2.53;;
73150;SDS011;61354;50.758;6.106;2022-08-30T16:46:58;6.28;;;2.63;;
73150;SDS011;61354;50.758;6.106;2022-08-30T16:49:23;6.38;;;3.35;;
73150;SDS011;61354;50.758;6.106;2022-08-30T16:51:49;5.50;;;2.75;;
73150;SDS011;61354;50.758;6.106;2022-08-30T16:54:15;5.53;;;2.67;;
73150;SDS011;61354;50.758;6.106;2022-08-30T16:56:41;5.97;;;2.38;;
73150;SDS011;61354;50.758;6.106;2022-08-30T16:59:07;6.28;;;2.72;;
73150;SDS011;61354;50.758;6.106;2022-08-30T17:01:34;5.47;;;3.00;;
73150;SDS011;61354;50.758;6.106;2022-08-30T17:04:09;7.05;;;2.58;;
73150;SDS011;61354;50.758;6.106;2022-08-30T17:06:35;8.15;;;2.60;;
73150;SDS011;61354;50.758;6.106;2022-08-30T17:09:01;6.10;;;2.85;;
73150;SDS011;61354;50.758;6.106;2022-08-30T17:11:26;6.82;;;2.55;;
73150;SDS011;61354;50.758;6.106;2022-08-30T17:13:52;5.55;;;2.60;;
73150;SDS011;61354;50.758;6.106;2022-08-30T17:16:18;7.18;;;2.58;;
73150;SDS011;61354;50.758;6.106;2022-08-30T17:18:45;4.28;;;2.33;;
73150;SDS011;61354;50.758;6.106;2022-08-30T17:21:10;7.18;;;3.08;;
73150;SDS011;61354;50.758;6.106;2022-08-30T17:23:36;4.80;;;2.60;;
73150;SDS011;61354;50.758;6.106;2022-08-30T17:26:01;5.32;;;2.53;;
73150;SDS011;61354;50.758;6.106;2022-08-30T17:28:27;5.55;;;3.10;;
73150;SDS011;61354;50.758;6.106;2022-08-30T17:30:52;5.93;;;2.50;;
73150;SDS011;61354;50.758;6.106;2022-08-30T17:33:18;4.22;;;2.53;;
73150;SDS011;61354;50.758;6.106;2022-08-30T17:35:44;4.80;;;2.72;;
73150;SDS011;61354;50.758;6.106;2022-08-30T17:38:09;6.50;;;2.72;;
73150;SDS011;61354;50.758;6.106;2022-08-30T17:40:34;5.65;;;2.70;;
73150;SDS011;61354;50.758;6.106;2022-08-30T17:43:00;4.78;;;2.80;;
73150;SDS011;61354;50.758;6.106;2022-08-30T17:45:25;4.28;;;2.35;;
73150;SDS011;61354;50.758;6.106;2022-08-30T17:47:51;4.15;;;2.58;;
73150;SDS011;61354;50.758;6.106;2022-08-30T17:50:17;4.82;;;2.60;;
73150;SDS011;61354;50.758;6.106;2022-08-30T17:52:42;5.13;;;2.67;;
73150;SDS011;61354;50.758;6.106;2022-08-30T17:55:08;6.45;;;2.50;;
73150;SDS011;61354;50.758;6.106;2022-08-30T17:57:44;6.68;;;2.80;;
73150;SDS011;61354;50.758;6.106;2022-08-30T18:00:09;4.10;;;2.45;;
73150;SDS011;61354;50.758;6.106;2022-08-30T18:02:37;6.70;;;2.70;;
73150;SDS011;61354;50.758;6.106;2022-08-30T18:05:04;6.10;;;2.83;;
73150;SDS011;61354;50.758;6.106;2022-08-30T18:07:31;4.95;;;2.33;;
73150;SDS011;61354;50.758;6.106;2022-08-30T18:09:56;4.95;;;2.42;;
73150;SDS011;61354;50.758;6.106;2022-08-30T18:12:22;5.03;;;2.67;;
73150;SDS011;61354;50.758;6.106;2022-08-30T18:14:47;4.88;;;2.33;;
73150;SDS011;61354;50.758;6.106;2022-08-30T18:17:14;4.40;;;2.30;;
73150;SDS011;61354;50.758;6.106;2022-08-30T18:19:40;3.45;;;2.30;;
73150;SDS011;61354;50.758;6.106;2022-08-30T18:50:47;4.93;;;2.15;;
73150;SDS011;61354;50.758;6.106;2022-08-30T18:54:08;4.45;;;2.40;;
73150;SDS011;61354;50.758;6.106;2022-08-30T18:56:43;3.78;;;2.40;;
73150;SDS011;61354;50.758;6.106;2022-08-30T18:59:09;3.70;;;2.05;;
73150;SDS011;61354;50.758;6.106;2022-08-30T19:01:43;4.70;;;2.13;;
73150;SDS011;61354;50.758;6.106;2022-08-30T19:04:10;4.85;;;2.08;;
73150;SDS011;61354;50.758;6.106;2022-08-30T19:13:10;6.28;;;2.53;;
73150;SDS011;61354;50.758;6.106;2022-08-30T19:15:54;4.43;;;2.08;;
73150;SDS011;61354;50.758;6.106;2022-08-30T19:30:07;4.68;;;2.42;;
73150;SDS011;61354;50.758;6.106;2022-08-30T19:32:38;4.10;;;2.25;;
73150;SDS011;61354;50.758;6.106;2022-08-30T19:35:09;5.05;;;2.42;;
73150;SDS011;61354;50.758;6.106;2022-08-30T19:37:36;5.10;;;2.03;;
73150;SDS011;61354;50.758;6.106;2022-08-30T19:40:03;6.07;;;2.40;;
73150;SDS011;61354;50.758;6.106;2022-08-30T19:42:43;3.60;;;2.33;;
73150;SDS011;61354;50.758;6.106;2022-08-30T19:45:09;4.93;;;2.30;;
73150;SDS011;61354;50.758;6.106;2022-08-30T19:47:46;4.43;;;2.30;;
73150;SDS011;61354;50.758;6.106;2022-08-30T19:50:11;3.50;;;2.00;;
73150;SDS011;61354;50.758;6.106;2022-08-30T19:52:44;6.43;;;2.38;;
73150;SDS011;61354;50.758;6.106;2022-08-30T19:55:10;5.05;;;2.22;;
73150;SDS011;61354;50.758;6.106;2022-08-30T19:57:45;3.75;;;2.30;;
73150;SDS011;61354;50.758;6.106;2022-08-30T20:00:11;4.22;;;2.30;;
73150;SDS011;61354;50.758;6.106;2022-08-30T20:02:38;3.92;;;2.20;;
73150;SDS011;61354;50.758;6.106;2022-08-30T20:05:05;3.83;;;2.10;;
73150;SDS011;61354;50.758;6.106;2022-08-30T20:07:31;4.18;;;2.10;;
73150;SDS011;61354;50.758;6.106;2022-08-30T20:10:00;4.78;;;2.10;;
73150;SDS011;61354;50.758;6.106;2022-08-30T20:12:32;4.85;;;2.10;;
73150;SDS011;61354;50.758;6.106;2022-08-30T20:14:59;4.07;;;2.15;;
73150;SDS011;61354;50.758;6.106;2022-08-30T20:17:33;4.43;;;2.10;;
73150;SDS011;61354;50.758;6.106;2022-08-30T20:19:59;5.07;;;2.20;;
73150;SDS011;61354;50.758;6.106;2022-08-30T20:22:26;4.18;;;1.90;;
73150;SDS011;61354;50.758;6.106;2022-08-30T20:24:52;4.68;;;2.10;;
73150;SDS011;61354;50.758;6.106;2022-08-30T20:27:17;6.13;;;2.28;;
73150;SDS011;61354;50.758;6.106;2022-08-30T20:29:43;4.22;;;2.25;;
73150;SDS011;61354;50.758;6.106;2022-08-30T20:32:09;3.67;;;2.05;;
73150;SDS011;61354;50.758;6.106;2022-08-30T20:34:36;5.53;;;1.92;;
73150;SDS011;61354;50.758;6.106;2022-08-30T20:37:01;3.92;;;2.00;;
73150;SDS011;61354;50.758;6.106;2022-08-30T20:39:27;5.00;;;2.65;;
73150;SDS011;61354;50.758;6.106;2022-08-30T20:41:52;3.97;;;2.20;;
73150;SDS011;61354;50.758;6.106;2022-08-30T20:44:18;4.80;;;2.17;;
73150;SDS011;61354;50.758;6.106;2022-08-30T20:46:46;3.38;;;2.05;;
73150;SDS011;61354;50.758;6.106;2022-08-30T20:49:13;5.00;;;2.28;;
73150;SDS011;61354;50.758;6.106;2022-08-30T20:51:39;5.50;;;2.28;;
73150;SDS011;61354;50.758;6.106;2022-08-30T20:54:05;5.07;;;2.10;;
73150;SDS011;61354;50.758;6.106;2022-08-30T20:56:30;3.85;;;2.20;;
73150;SDS011;61354;50.758;6.106;2022-08-30T21:01:25;4.10;;;2.08;;
73150;SDS011;61354;50.758;6.106;2022-08-30T21:03:51;2.85;;;2.00;;